sensor_id;sensor_type;location;lat;lon;timestamp;pressure;altitude;pressure_sealevel;temperature
30765;BMP180;494;48.744;10.106;2024-03-02T00:02:25;94645.00;;;8.90
30765;BMP180;494;48.744;10.106;2024-03-02T00:04:55;94558.00;;;8.60
30765;BMP180;494;48.744;10.106;2024-03-02T00:07:29;94554.00;;;8.70
30765;BMP180;494;48.744;10.106;2024-03-02T00:10:09;94342.00;;;9.20
30765;BMP180;494;48.744;10.106;2024-03-02T00:12:40;94363.00;;;9.20
30765;BMP180;494;48.744;10.106;2024-03-02T00:15:46;94548.00;;;8.30
30765;BMP180;494;48.744;10.106;2024-03-02T00:18:24;94553.00;;;9.40
30765;BMP180;494;48.744;10.106;2024-03-02T00:21:09;94378.00;;;9.50
30765;BMP180;494;48.744;10.106;2024-03-02T00:23:41;94451.00;;;9.40
30765;BMP180;494;48.744;10.106;2024-03-02T00:26:14;94314.00;;;9.50
30765;BMP180;494;48.744;10.106;2024-03-02T00:28:44;94514.00;;;7.80
30765;BMP180;494;48.744;10.106;2024-03-02T00:31:14;94550.00;;;9.10
30765;BMP180;494;48.744;10.106;2024-03-02T00:33:48;94597.00;;;9.30
30765;BMP180;494;48.744;10.106;2024-03-02T00:36:24;94397.00;;;9.10
30765;BMP180;494;48.744;10.106;2024-03-02T00:39:12;94549.00;;;9.00
30765;BMP180;494;48.744;10.106;2024-03-02T00:41:41;93792.00;;;9.20
30765;BMP180;494;48.744;10.106;2024-03-02T00:44:13;94396.00;;;8.80
30765;BMP180;494;48.744;10.106;2024-03-02T00:46:46;94123.00;;;8.90
30765;BMP180;494;48.744;10.106;2024-03-02T00:49:22;93806.00;;;9.10
30765;BMP180;494;48.744;10.106;2024-03-02T00:51:53;94058.00;;;9.00
30765;BMP180;494;48.744;10.106;2024-03-02T00:54:29;94222.00;;;9.00
30765;BMP180;494;48.744;10.106;2024-03-02T00:56:59;94329.00;;;9.20
30765;BMP180;494;48.744;10.106;2024-03-02T00:59:30;94552.00;;;9.20
30765;BMP180;494;48.744;10.106;2024-03-02T01:01:59;94459.00;;;8.50
30765;BMP180;494;48.744;10.106;2024-03-02T01:04:28;94468.00;;;9.20
30765;BMP180;494;48.744;10.106;2024-03-02T01:06:58;94235.00;;;9.30
30765;BMP180;494;48.744;10.106;2024-03-02T01:09:39;93805.00;;;8.90
30765;BMP180;494;48.744;10.106;2024-03-02T01:12:09;94377.00;;;9.30
30765;BMP180;494;48.744;10.106;2024-03-02T01:14:37;94553.00;;;9.20
30765;BMP180;494;48.744;10.106;2024-03-02T01:17:06;94287.00;;;7.80
30765;BMP180;494;48.744;10.106;2024-03-02T01:19:35;94487.00;;;7.80
30765;BMP180;494;48.744;10.106;2024-03-02T01:22:05;94424.00;;;7.60
30765;BMP180;494;48.744;10.106;2024-03-02T01:24:34;94224.00;;;9.30
30765;BMP180;494;48.744;10.106;2024-03-02T01:27:04;94413.00;;;9.20
30765;BMP180;494;48.744;10.106;2024-03-02T01:29:35;93760.00;;;9.30
30765;BMP180;494;48.744;10.106;2024-03-02T01:32:05;94182.00;;;9.40
30765;BMP180;494;48.744;10.106;2024-03-02T01:34:42;94556.00;;;9.30
30765;BMP180;494;48.744;10.106;2024-03-02T01:37:38;94180.00;;;9.40
30765;BMP180;494;48.744;10.106;2024-03-02T01:40:10;94304.00;;;9.40
30765;BMP180;494;48.744;10.106;2024-03-02T01:42:41;94360.00;;;9.50
30765;BMP180;494;48.744;10.106;2024-03-02T01:45:09;94231.00;;;8.80
30765;BMP180;494;48.744;10.106;2024-03-02T01:47:38;94309.00;;;9.40
30765;BMP180;494;48.744;10.106;2024-03-02T01:50:08;94652.00;;;9.50
30765;BMP180;494;48.744;10.106;2024-03-02T01:52:39;94577.00;;;9.60
30765;BMP180;494;48.744;10.106;2024-03-02T01:55:08;94571.00;;;9.70
30765;BMP180;494;48.744;10.106;2024-03-02T01:57:37;94520.00;;;9.70
30765;BMP180;494;48.744;10.106;2024-03-02T02:00:15;94412.00;;;9.70
30765;BMP180;494;48.744;10.106;2024-03-02T02:02:44;94544.00;;;9.40
30765;BMP180;494;48.744;10.106;2024-03-02T02:05:14;94592.00;;;9.60
30765;BMP180;494;48.744;10.106;2024-03-02T02:07:44;94212.00;;;8.30
30765;BMP180;494;48.744;10.106;2024-03-02T02:10:14;94386.00;;;9.60
30765;BMP180;494;48.744;10.106;2024-03-02T02:12:51;94628.00;;;9.70
30765;BMP180;494;48.744;10.106;2024-03-02T02:15:27;94736.00;;;7.90
30765;BMP180;494;48.744;10.106;2024-03-02T02:18:02;94545.00;;;9.60
30765;BMP180;494;48.744;10.106;2024-03-02T02:20:32;94728.00;;;8.80
30765;BMP180;494;48.744;10.106;2024-03-02T02:23:08;93605.00;;;9.60
30765;BMP180;494;48.744;10.106;2024-03-02T02:25:37;94637.00;;;8.80
30765;BMP180;494;48.744;10.106;2024-03-02T02:28:10;94625.00;;;9.70
30765;BMP180;494;48.744;10.106;2024-03-02T02:30:41;94544.00;;;9.50
30765;BMP180;494;48.744;10.106;2024-03-02T02:33:12;93751.00;;;7.10
30765;BMP180;494;48.744;10.106;2024-03-02T02:35:41;93580.00;;;8.70
30765;BMP180;494;48.744;10.106;2024-03-02T02:38:13;93962.00;;;6.80
30765;BMP180;494;48.744;10.106;2024-03-02T02:40:42;94492.00;;;9.40
30765;BMP180;494;48.744;10.106;2024-03-02T02:43:11;94698.00;;;9.60
30765;BMP180;494;48.744;10.106;2024-03-02T02:45:40;94677.00;;;8.70
30765;BMP180;494;48.744;10.106;2024-03-02T02:48:09;94537.00;;;8.50
30765;BMP180;494;48.744;10.106;2024-03-02T02:50:38;94025.00;;;6.50
30765;BMP180;494;48.744;10.106;2024-03-02T02:53:07;94684.00;;;9.50
30765;BMP180;494;48.744;10.106;2024-03-02T02:55:39;93618.00;;;9.70
30765;BMP180;494;48.744;10.106;2024-03-02T02:58:11;94477.00;;;9.60
30765;BMP180;494;48.744;10.106;2024-03-02T03:00:40;94524.00;;;7.10
30765;BMP180;494;48.744;10.106;2024-03-02T03:03:10;94113.00;;;8.00
30765;BMP180;494;48.744;10.106;2024-03-02T03:05:39;94416.00;;;6.50
30765;BMP180;494;48.744;10.106;2024-03-02T03:08:11;93968.00;;;9.40
30765;BMP180;494;48.744;10.106;2024-03-02T03:10:41;94366.00;;;8.00
30765;BMP180;494;48.744;10.106;2024-03-02T03:13:11;93993.00;;;8.00
30765;BMP180;494;48.744;10.106;2024-03-02T03:15:39;94314.00;;;8.50
30765;BMP180;494;48.744;10.106;2024-03-02T03:18:14;94652.00;;;8.40
30765;BMP180;494;48.744;10.106;2024-03-02T03:20:43;94408.00;;;8.70
30765;BMP180;494;48.744;10.106;2024-03-02T03:23:12;94393.00;;;9.00
30765;BMP180;494;48.744;10.106;2024-03-02T03:25:45;94628.00;;;6.80
30765;BMP180;494;48.744;10.106;2024-03-02T03:28:14;94106.00;;;8.80
30765;BMP180;494;48.744;10.106;2024-03-02T03:30:43;94610.00;;;9.10
30765;BMP180;494;48.744;10.106;2024-03-02T03:33:12;93884.00;;;9.20
30765;BMP180;494;48.744;10.106;2024-03-02T03:35:41;94316.00;;;9.10
30765;BMP180;494;48.744;10.106;2024-03-02T03:38:11;94162.00;;;6.30
30765;BMP180;494;48.744;10.106;2024-03-02T03:40:45;94444.00;;;6.20
30765;BMP180;494;48.744;10.106;2024-03-02T03:43:15;94488.00;;;8.70
30765;BMP180;494;48.744;10.106;2024-03-02T03:45:44;94622.00;;;9.20
30765;BMP180;494;48.744;10.106;2024-03-02T03:48:13;94470.00;;;8.70
30765;BMP180;494;48.744;10.106;2024-03-02T03:50:42;94469.00;;;8.70
30765;BMP180;494;48.744;10.106;2024-03-02T03:53:11;94034.00;;;7.20
30765;BMP180;494;48.744;10.106;2024-03-02T03:55:41;94632.00;;;8.90
30765;BMP180;494;48.744;10.106;2024-03-02T03:58:12;94622.00;;;9.10
30765;BMP180;494;48.744;10.106;2024-03-02T04:00:41;94604.00;;;7.70
30765;BMP180;494;48.744;10.106;2024-03-02T04:03:10;94587.00;;;8.70
30765;BMP180;494;48.744;10.106;2024-03-02T04:05:39;94462.00;;;9.20
30765;BMP180;494;48.744;10.106;2024-03-02T04:08:08;94352.00;;;9.10
30765;BMP180;494;48.744;10.106;2024-03-02T04:10:39;94388.00;;;9.20
30765;BMP180;494;48.744;10.106;2024-03-02T04:13:10;93664.00;;;9.00
30765;BMP180;494;48.744;10.106;2024-03-02T04:15:39;94554.00;;;8.80
30765;BMP180;494;48.744;10.106;2024-03-02T04:18:09;94457.00;;;8.80
30765;BMP180;494;48.744;10.106;2024-03-02T04:20:38;94378.00;;;5.90
30765;BMP180;494;48.744;10.106;2024-03-02T04:23:07;94226.00;;;7.00
30765;BMP180;494;48.744;10.106;2024-03-02T04:26:00;94564.00;;;8.50
30765;BMP180;494;48.744;10.106;2024-03-02T04:28:31;94464.00;;;6.50
30765;BMP180;494;48.744;10.106;2024-03-02T04:31:00;94541.00;;;3.60
30765;BMP180;494;48.744;10.106;2024-03-02T04:33:29;94563.00;;;7.20
30765;BMP180;494;48.744;10.106;2024-03-02T04:35:58;94462.00;;;8.20
30765;BMP180;494;48.744;10.106;2024-03-02T04:38:27;94594.00;;;7.00
30765;BMP180;494;48.744;10.106;2024-03-02T04:40:56;94594.00;;;8.40
30765;BMP180;494;48.744;10.106;2024-03-02T04:43:24;93805.00;;;8.30
30765;BMP180;494;48.744;10.106;2024-03-02T04:45:54;94738.00;;;6.60
30765;BMP180;494;48.744;10.106;2024-03-02T04:48:23;94321.00;;;6.40
30765;BMP180;494;48.744;10.106;2024-03-02T04:50:52;94547.00;;;8.60
30765;BMP180;494;48.744;10.106;2024-03-02T04:53:21;94570.00;;;8.20
30765;BMP180;494;48.744;10.106;2024-03-02T04:55:50;93581.00;;;8.60
30765;BMP180;494;48.744;10.106;2024-03-02T04:58:47;93704.00;;;7.10
30765;BMP180;494;48.744;10.106;2024-03-02T05:01:18;94118.00;;;6.60
30765;BMP180;494;48.744;10.106;2024-03-02T05:03:48;94569.00;;;8.10
30765;BMP180;494;48.744;10.106;2024-03-02T05:06:17;94660.00;;;6.90
30765;BMP180;494;48.744;10.106;2024-03-02T05:08:46;93896.00;;;5.90
30765;BMP180;494;48.744;10.106;2024-03-02T05:11:15;93626.00;;;8.70
30765;BMP180;494;48.744;10.106;2024-03-02T05:14:01;94610.00;;;8.70
30765;BMP180;494;48.744;10.106;2024-03-02T05:16:34;94269.00;;;8.80
30765;BMP180;494;48.744;10.106;2024-03-02T05:19:02;94493.00;;;7.50
30765;BMP180;494;48.744;10.106;2024-03-02T05:21:33;94236.00;;;8.10
30765;BMP180;494;48.744;10.106;2024-03-02T05:24:03;93988.00;;;8.80
30765;BMP180;494;48.744;10.106;2024-03-02T05:26:32;94608.00;;;8.70
30765;BMP180;494;48.744;10.106;2024-03-02T05:29:01;93778.00;;;8.60
30765;BMP180;494;48.744;10.106;2024-03-02T05:31:31;94619.00;;;8.10
30765;BMP180;494;48.744;10.106;2024-03-02T05:34:01;94638.00;;;5.30
30765;BMP180;494;48.744;10.106;2024-03-02T05:36:30;94814.00;;;8.70
30765;BMP180;494;48.744;10.106;2024-03-02T05:38:59;94711.00;;;8.70
30765;BMP180;494;48.744;10.106;2024-03-02T05:41:28;94525.00;;;7.00
30765;BMP180;494;48.744;10.106;2024-03-02T05:43:57;94412.00;;;8.00
30765;BMP180;494;48.744;10.106;2024-03-02T05:46:25;93721.00;;;7.80
30765;BMP180;494;48.744;10.106;2024-03-02T05:48:56;94692.00;;;8.70
30765;BMP180;494;48.744;10.106;2024-03-02T05:51:25;94404.00;;;8.80
30765;BMP180;494;48.744;10.106;2024-03-02T05:53:54;94059.00;;;8.60
30765;BMP180;494;48.744;10.106;2024-03-02T05:56:23;94550.00;;;8.80
30765;BMP180;494;48.744;10.106;2024-03-02T05:58:53;94518.00;;;7.20
30765;BMP180;494;48.744;10.106;2024-03-02T06:01:35;94715.00;;;7.90
30765;BMP180;494;48.744;10.106;2024-03-02T06:04:06;94639.00;;;8.60
30765;BMP180;494;48.744;10.106;2024-03-02T06:06:35;94475.00;;;7.00
30765;BMP180;494;48.744;10.106;2024-03-02T06:09:05;94466.00;;;8.60
30765;BMP180;494;48.744;10.106;2024-03-02T06:11:36;94596.00;;;8.00
30765;BMP180;494;48.744;10.106;2024-03-02T06:14:05;94548.00;;;6.30
30765;BMP180;494;48.744;10.106;2024-03-02T06:16:35;94531.00;;;7.90
30765;BMP180;494;48.744;10.106;2024-03-02T06:19:05;94719.00;;;6.20
30765;BMP180;494;48.744;10.106;2024-03-02T06:21:34;94657.00;;;5.10
30765;BMP180;494;48.744;10.106;2024-03-02T06:24:04;94562.00;;;8.90
30765;BMP180;494;48.744;10.106;2024-03-02T06:26:40;94683.00;;;8.80
30765;BMP180;494;48.744;10.106;2024-03-02T06:29:08;93962.00;;;6.20
30765;BMP180;494;48.744;10.106;2024-03-02T06:31:39;94518.00;;;8.40
30765;BMP180;494;48.744;10.106;2024-03-02T06:34:09;94579.00;;;6.30
30765;BMP180;494;48.744;10.106;2024-03-02T06:36:40;94058.00;;;6.40
30765;BMP180;494;48.744;10.106;2024-03-02T06:39:10;94742.00;;;8.90
30765;BMP180;494;48.744;10.106;2024-03-02T06:41:39;94777.00;;;9.10
30765;BMP180;494;48.744;10.106;2024-03-02T06:44:09;94619.00;;;8.30
30765;BMP180;494;48.744;10.106;2024-03-02T06:46:38;94575.00;;;9.10
30765;BMP180;494;48.744;10.106;2024-03-02T06:49:09;94604.00;;;9.00
30765;BMP180;494;48.744;10.106;2024-03-02T06:51:38;94695.00;;;7.80
30765;BMP180;494;48.744;10.106;2024-03-02T06:54:07;94357.00;;;7.50
30765;BMP180;494;48.744;10.106;2024-03-02T06:56:36;94333.00;;;8.60
30765;BMP180;494;48.744;10.106;2024-03-02T06:59:06;94377.00;;;8.90
30765;BMP180;494;48.744;10.106;2024-03-02T07:01:34;93980.00;;;9.20
30765;BMP180;494;48.744;10.106;2024-03-02T07:04:03;94307.00;;;9.40
30765;BMP180;494;48.744;10.106;2024-03-02T07:06:35;94589.00;;;9.30
30765;BMP180;494;48.744;10.106;2024-03-02T07:09:04;93753.00;;;9.20
30765;BMP180;494;48.744;10.106;2024-03-02T07:11:34;94040.00;;;9.50
30765;BMP180;494;48.744;10.106;2024-03-02T07:14:04;94559.00;;;9.60
30765;BMP180;494;48.744;10.106;2024-03-02T07:16:37;94701.00;;;7.70
30765;BMP180;494;48.744;10.106;2024-03-02T07:19:08;94731.00;;;7.30
30765;BMP180;494;48.744;10.106;2024-03-02T07:21:39;93962.00;;;7.90
30765;BMP180;494;48.744;10.106;2024-03-02T07:24:07;94301.00;;;8.00
30765;BMP180;494;48.744;10.106;2024-03-02T07:26:40;94556.00;;;8.40
30765;BMP180;494;48.744;10.106;2024-03-02T07:29:14;94055.00;;;9.70
30765;BMP180;494;48.744;10.106;2024-03-02T07:31:43;93892.00;;;9.90
30765;BMP180;494;48.744;10.106;2024-03-02T07:34:13;94010.00;;;9.10
30765;BMP180;494;48.744;10.106;2024-03-02T07:36:43;94776.00;;;6.50
30765;BMP180;494;48.744;10.106;2024-03-02T07:39:14;94291.00;;;9.90
30765;BMP180;494;48.744;10.106;2024-03-02T07:41:47;94733.00;;;9.90
30765;BMP180;494;48.744;10.106;2024-03-02T07:44:17;94637.00;;;10.00
30765;BMP180;494;48.744;10.106;2024-03-02T07:46:47;94637.00;;;7.40
30765;BMP180;494;48.744;10.106;2024-03-02T07:49:17;94670.00;;;10.20
30765;BMP180;494;48.744;10.106;2024-03-02T07:51:48;94647.00;;;10.50
30765;BMP180;494;48.744;10.106;2024-03-02T07:54:16;94835.00;;;10.50
30765;BMP180;494;48.744;10.106;2024-03-02T07:56:45;94707.00;;;10.30
30765;BMP180;494;48.744;10.106;2024-03-02T07:59:15;94552.00;;;10.50
30765;BMP180;494;48.744;10.106;2024-03-02T08:01:44;93608.00;;;10.70
30765;BMP180;494;48.744;10.106;2024-03-02T08:04:13;94614.00;;;10.90
30765;BMP180;494;48.744;10.106;2024-03-02T08:06:42;93802.00;;;9.30
30765;BMP180;494;48.744;10.106;2024-03-02T08:09:13;93995.00;;;10.10
30765;BMP180;494;48.744;10.106;2024-03-02T08:11:42;94597.00;;;8.90
30765;BMP180;494;48.744;10.106;2024-03-02T08:14:11;94714.00;;;10.70
30765;BMP180;494;48.744;10.106;2024-03-02T08:16:42;94653.00;;;10.90
30765;BMP180;494;48.744;10.106;2024-03-02T08:19:11;93702.00;;;9.80
30765;BMP180;494;48.744;10.106;2024-03-02T08:21:41;93781.00;;;9.80
30765;BMP180;494;48.744;10.106;2024-03-02T08:24:18;94246.00;;;11.00
30765;BMP180;494;48.744;10.106;2024-03-02T08:26:50;94059.00;;;11.10
30765;BMP180;494;48.744;10.106;2024-03-02T08:29:19;94584.00;;;9.30
30765;BMP180;494;48.744;10.106;2024-03-02T08:31:47;94322.00;;;10.90
30765;BMP180;494;48.744;10.106;2024-03-02T08:34:16;94514.00;;;11.00
30765;BMP180;494;48.744;10.106;2024-03-02T08:36:48;94391.00;;;9.30
30765;BMP180;494;48.744;10.106;2024-03-02T08:39:19;94001.00;;;11.20
30765;BMP180;494;48.744;10.106;2024-03-02T08:41:48;94142.00;;;8.40
30765;BMP180;494;48.744;10.106;2024-03-02T08:44:17;94606.00;;;11.30
30765;BMP180;494;48.744;10.106;2024-03-02T08:46:46;93991.00;;;11.30
30765;BMP180;494;48.744;10.106;2024-03-02T08:49:17;93703.00;;;11.30
30765;BMP180;494;48.744;10.106;2024-03-02T08:51:46;94566.00;;;10.60
30765;BMP180;494;48.744;10.106;2024-03-02T08:58:17;94627.00;;;11.40
30765;BMP180;494;48.744;10.106;2024-03-02T09:00:47;94280.00;;;11.20
30765;BMP180;494;48.744;10.106;2024-03-02T09:03:16;94604.00;;;11.50
30765;BMP180;494;48.744;10.106;2024-03-02T09:05:48;94626.00;;;10.90
30765;BMP180;494;48.744;10.106;2024-03-02T09:08:16;94643.00;;;11.60
30765;BMP180;494;48.744;10.106;2024-03-02T09:10:47;94485.00;;;11.60
30765;BMP180;494;48.744;10.106;2024-03-02T09:13:16;94350.00;;;11.70
30765;BMP180;494;48.744;10.106;2024-03-02T09:15:47;94539.00;;;11.70
30765;BMP180;494;48.744;10.106;2024-03-02T09:18:29;94485.00;;;11.80
30765;BMP180;494;48.744;10.106;2024-03-02T09:24:41;94549.00;;;12.30
30765;BMP180;494;48.744;10.106;2024-03-02T09:27:11;94607.00;;;12.30
30765;BMP180;494;48.744;10.106;2024-03-02T09:33:32;94622.00;;;12.90
30765;BMP180;494;48.744;10.106;2024-03-02T09:36:05;94598.00;;;14.00
30765;BMP180;494;48.744;10.106;2024-03-02T09:38:36;94575.00;;;14.50
30765;BMP180;494;48.744;10.106;2024-03-02T09:41:05;94272.00;;;15.40
30765;BMP180;494;48.744;10.106;2024-03-02T09:43:36;94590.00;;;16.50
30765;BMP180;494;48.744;10.106;2024-03-02T09:46:05;93852.00;;;17.40
30765;BMP180;494;48.744;10.106;2024-03-02T09:48:37;94123.00;;;17.90
30765;BMP180;494;48.744;10.106;2024-03-02T09:51:11;94527.00;;;18.50
30765;BMP180;494;48.744;10.106;2024-03-02T09:53:42;94425.00;;;18.90
30765;BMP180;494;48.744;10.106;2024-03-02T09:56:12;94641.00;;;18.30
30765;BMP180;494;48.744;10.106;2024-03-02T09:58:45;94352.00;;;20.00
30765;BMP180;494;48.744;10.106;2024-03-02T10:01:15;94386.00;;;20.50
30765;BMP180;494;48.744;10.106;2024-03-02T10:03:45;94570.00;;;20.90
30765;BMP180;494;48.744;10.106;2024-03-02T10:06:22;94602.00;;;21.30
30765;BMP180;494;48.744;10.106;2024-03-02T10:08:52;94512.00;;;21.30
30765;BMP180;494;48.744;10.106;2024-03-02T10:11:28;94479.00;;;20.80
30765;BMP180;494;48.744;10.106;2024-03-02T10:14:07;94625.00;;;19.90
30765;BMP180;494;48.744;10.106;2024-03-02T10:16:40;94156.00;;;19.30
30765;BMP180;494;48.744;10.106;2024-03-02T10:19:17;94395.00;;;19.50
30765;BMP180;494;48.744;10.106;2024-03-02T10:21:50;94372.00;;;19.90
30765;BMP180;494;48.744;10.106;2024-03-02T10:24:22;94642.00;;;20.10
30765;BMP180;494;48.744;10.106;2024-03-02T10:26:52;94503.00;;;20.90
30765;BMP180;494;48.744;10.106;2024-03-02T10:29:23;94517.00;;;21.60
30765;BMP180;494;48.744;10.106;2024-03-02T10:31:55;94221.00;;;21.80
30765;BMP180;494;48.744;10.106;2024-03-02T10:34:27;94307.00;;;22.10
30765;BMP180;494;48.744;10.106;2024-03-02T10:36:58;93987.00;;;20.80
30765;BMP180;494;48.744;10.106;2024-03-02T10:39:29;94554.00;;;22.20
30765;BMP180;494;48.744;10.106;2024-03-02T10:42:14;94471.00;;;22.70
30765;BMP180;494;48.744;10.106;2024-03-02T10:44:48;94486.00;;;22.80
30765;BMP180;494;48.744;10.106;2024-03-02T10:47:21;94543.00;;;23.20
30765;BMP180;494;48.744;10.106;2024-03-02T10:49:59;94311.00;;;22.70
30765;BMP180;494;48.744;10.106;2024-03-02T10:52:27;94525.00;;;23.10
30765;BMP180;494;48.744;10.106;2024-03-02T10:54:57;94520.00;;;19.70
30765;BMP180;494;48.744;10.106;2024-03-02T10:57:40;94517.00;;;22.90
30765;BMP180;494;48.744;10.106;2024-03-02T11:00:24;94488.00;;;22.70
30765;BMP180;494;48.744;10.106;2024-03-02T11:03:04;94412.00;;;22.30
30765;BMP180;494;48.744;10.106;2024-03-02T11:05:41;94395.00;;;22.90
30765;BMP180;494;48.744;10.106;2024-03-02T11:08:17;94448.00;;;22.20
30765;BMP180;494;48.744;10.106;2024-03-02T11:10:53;94575.00;;;20.50
30765;BMP180;494;48.744;10.106;2024-03-02T11:13:31;94403.00;;;19.70
30765;BMP180;494;48.744;10.106;2024-03-02T11:16:19;94550.00;;;18.70
30765;BMP180;494;48.744;10.106;2024-03-02T11:18:56;94286.00;;;18.10
30765;BMP180;494;48.744;10.106;2024-03-02T11:21:31;94537.00;;;18.80
30765;BMP180;494;48.744;10.106;2024-03-02T11:24:28;94604.00;;;18.60
30765;BMP180;494;48.744;10.106;2024-03-02T11:27:07;94569.00;;;17.40
30765;BMP180;494;48.744;10.106;2024-03-02T11:29:45;94271.00;;;18.30
30765;BMP180;494;48.744;10.106;2024-03-02T11:32:23;94471.00;;;18.30
30765;BMP180;494;48.744;10.106;2024-03-02T11:34:52;94216.00;;;17.90
30765;BMP180;494;48.744;10.106;2024-03-02T11:37:21;94064.00;;;19.30
30765;BMP180;494;48.744;10.106;2024-03-02T11:39:52;94262.00;;;20.70
30765;BMP180;494;48.744;10.106;2024-03-02T11:42:20;94447.00;;;22.20
30765;BMP180;494;48.744;10.106;2024-03-02T11:44:51;94119.00;;;23.70
30765;BMP180;494;48.744;10.106;2024-03-02T11:47:22;94379.00;;;24.40
30765;BMP180;494;48.744;10.106;2024-03-02T11:49:52;93856.00;;;24.40
30765;BMP180;494;48.744;10.106;2024-03-02T11:52:23;93963.00;;;25.60
30765;BMP180;494;48.744;10.106;2024-03-02T11:54:57;94137.00;;;25.40
30765;BMP180;494;48.744;10.106;2024-03-02T11:57:43;94493.00;;;25.90
30765;BMP180;494;48.744;10.106;2024-03-02T12:00:18;94269.00;;;26.30
30765;BMP180;494;48.744;10.106;2024-03-02T12:03:12;94491.00;;;26.90
30765;BMP180;494;48.744;10.106;2024-03-02T12:05:42;94497.00;;;27.30
30765;BMP180;494;48.744;10.106;2024-03-02T12:08:12;94410.00;;;27.10
30765;BMP180;494;48.744;10.106;2024-03-02T12:10:55;94091.00;;;27.60
30765;BMP180;494;48.744;10.106;2024-03-02T12:14:01;94475.00;;;27.20
30765;BMP180;494;48.744;10.106;2024-03-02T12:16:32;94462.00;;;28.10
30765;BMP180;494;48.744;10.106;2024-03-02T12:19:33;94414.00;;;27.90
30765;BMP180;494;48.744;10.106;2024-03-02T12:22:08;94343.00;;;27.80
30765;BMP180;494;48.744;10.106;2024-03-02T12:24:51;94313.00;;;27.50
30765;BMP180;494;48.744;10.106;2024-03-02T12:27:21;94373.00;;;27.90
30765;BMP180;494;48.744;10.106;2024-03-02T12:29:56;94493.00;;;26.80
30765;BMP180;494;48.744;10.106;2024-03-02T12:32:25;94456.00;;;28.40
30765;BMP180;494;48.744;10.106;2024-03-02T12:34:56;94470.00;;;29.00
30765;BMP180;494;48.744;10.106;2024-03-02T12:37:25;94379.00;;;29.00
30765;BMP180;494;48.744;10.106;2024-03-02T12:39:55;94147.00;;;28.40
30765;BMP180;494;48.744;10.106;2024-03-02T12:42:25;94500.00;;;28.80
30765;BMP180;494;48.744;10.106;2024-03-02T12:44:56;94454.00;;;28.60
30765;BMP180;494;48.744;10.106;2024-03-02T12:47:25;94357.00;;;28.30
30765;BMP180;494;48.744;10.106;2024-03-02T12:50:02;93834.00;;;28.50
30765;BMP180;494;48.744;10.106;2024-03-02T12:52:41;94353.00;;;28.50
30765;BMP180;494;48.744;10.106;2024-03-02T12:55:25;94450.00;;;28.50
30765;BMP180;494;48.744;10.106;2024-03-02T12:57:57;94377.00;;;28.80
30765;BMP180;494;48.744;10.106;2024-03-02T13:00:29;94146.00;;;28.00
30765;BMP180;494;48.744;10.106;2024-03-02T13:03:17;94447.00;;;28.70
30765;BMP180;494;48.744;10.106;2024-03-02T13:05:53;94277.00;;;29.10
30765;BMP180;494;48.744;10.106;2024-03-02T13:11:09;94248.00;;;28.90
30765;BMP180;494;48.744;10.106;2024-03-02T13:13:56;94355.00;;;30.00
30765;BMP180;494;48.744;10.106;2024-03-02T13:16:55;94437.00;;;30.50
30765;BMP180;494;48.744;10.106;2024-03-02T13:19:30;94433.00;;;31.20
30765;BMP180;494;48.744;10.106;2024-03-02T13:22:04;94128.00;;;29.90
30765;BMP180;494;48.744;10.106;2024-03-02T13:24:47;94008.00;;;30.40
30765;BMP180;494;48.744;10.106;2024-03-02T13:28:01;94497.00;;;29.30
30765;BMP180;494;48.744;10.106;2024-03-02T13:31:05;94426.00;;;28.20
30765;BMP180;494;48.744;10.106;2024-03-02T13:33:37;94438.00;;;29.90
30765;BMP180;494;48.744;10.106;2024-03-02T13:36:26;94334.00;;;30.10
30765;BMP180;494;48.744;10.106;2024-03-02T13:39:22;94410.00;;;30.40
30765;BMP180;494;48.744;10.106;2024-03-02T13:41:52;94421.00;;;29.50
30765;BMP180;494;48.744;10.106;2024-03-02T13:44:36;94417.00;;;28.40
30765;BMP180;494;48.744;10.106;2024-03-02T13:47:06;94348.00;;;28.90
30765;BMP180;494;48.744;10.106;2024-03-02T13:49:42;94252.00;;;27.50
30765;BMP180;494;48.744;10.106;2024-03-02T13:52:17;94454.00;;;27.60
30765;BMP180;494;48.744;10.106;2024-03-02T13:54:50;94293.00;;;28.10
30765;BMP180;494;48.744;10.106;2024-03-02T13:57:21;94317.00;;;27.90
30765;BMP180;494;48.744;10.106;2024-03-02T13:59:54;94340.00;;;28.00
30765;BMP180;494;48.744;10.106;2024-03-02T14:02:26;94382.00;;;27.80
30765;BMP180;494;48.744;10.106;2024-03-02T14:04:56;93813.00;;;27.30
30765;BMP180;494;48.744;10.106;2024-03-02T14:07:27;94379.00;;;27.10
30765;BMP180;494;48.744;10.106;2024-03-02T14:09:58;94310.00;;;26.40
30765;BMP180;494;48.744;10.106;2024-03-02T14:12:26;93957.00;;;26.60
30765;BMP180;494;48.744;10.106;2024-03-02T14:14:55;94437.00;;;26.90
30765;BMP180;494;48.744;10.106;2024-03-02T14:17:27;94176.00;;;27.30
30765;BMP180;494;48.744;10.106;2024-03-02T14:19:56;94276.00;;;27.50
30765;BMP180;494;48.744;10.106;2024-03-02T14:22:26;94367.00;;;28.10
30765;BMP180;494;48.744;10.106;2024-03-02T14:25:06;93886.00;;;27.80
30765;BMP180;494;48.744;10.106;2024-03-02T14:27:40;94365.00;;;27.20
30765;BMP180;494;48.744;10.106;2024-03-02T14:30:37;94336.00;;;28.00
30765;BMP180;494;48.744;10.106;2024-03-02T14:33:12;94364.00;;;27.80
30765;BMP180;494;48.744;10.106;2024-03-02T14:35:42;93889.00;;;28.00
30765;BMP180;494;48.744;10.106;2024-03-02T14:38:12;93702.00;;;28.10
30765;BMP180;494;48.744;10.106;2024-03-02T14:40:49;94204.00;;;27.90
30765;BMP180;494;48.744;10.106;2024-03-02T14:43:20;94285.00;;;27.70
30765;BMP180;494;48.744;10.106;2024-03-02T14:45:49;94397.00;;;27.40
30765;BMP180;494;48.744;10.106;2024-03-02T14:48:20;94318.00;;;27.50
30765;BMP180;494;48.744;10.106;2024-03-02T14:50:52;94250.00;;;27.90
30765;BMP180;494;48.744;10.106;2024-03-02T14:53:29;94310.00;;;27.80
30765;BMP180;494;48.744;10.106;2024-03-02T14:56:13;93841.00;;;27.70
30765;BMP180;494;48.744;10.106;2024-03-02T14:58:45;93794.00;;;27.40
30765;BMP180;494;48.744;10.106;2024-03-02T15:01:16;94087.00;;;27.20
30765;BMP180;494;48.744;10.106;2024-03-02T15:03:49;94440.00;;;26.40
30765;BMP180;494;48.744;10.106;2024-03-02T15:06:23;94346.00;;;25.70
30765;BMP180;494;48.744;10.106;2024-03-02T15:08:57;93799.00;;;26.70
30765;BMP180;494;48.744;10.106;2024-03-02T15:11:49;94346.00;;;26.60
30765;BMP180;494;48.744;10.106;2024-03-02T15:14:40;93856.00;;;27.00
30765;BMP180;494;48.744;10.106;2024-03-02T15:17:22;94319.00;;;26.40